sensor_id;sensor_type;location;lat;lon;timestamp;P1;durP1;ratioP1;P2;durP2;ratioP2
1523;SDS011;755;53.658;10.118;2022-08-21T00:19:52;10.43;;;3.58;;
1523;SDS011;755;53.658;10.118;2022-08-21T00:29:57;8.20;;;3.67;;
1523;SDS011;755;53.658;10.118;2022-08-21T00:40:00;12.38;;;3.97;;
1523;SDS011;755;53.658;10.118;2022-08-21T00:50:03;10.25;;;3.75;;
1523;SDS011;755;53.658;10.118;2022-08-21T01:00:09;12.82;;;3.22;;
1523;SDS011;755;53.658;10.118;2022-08-21T01:10:14;8.43;;;3.30;;
1523;SDS011;755;53.658;10.118;2022-08-21T01:20:20;11.30;;;3.45;;
1523;SDS011;755;53.658;10.118;2022-08-21T01:30:25;8.52;;;3.92;;
1523;SDS011;755;53.658;10.118;2022-08-21T01:40:28;8.07;;;3.00;;
1523;SDS011;755;53.658;10.118;2022-08-21T01:50:32;9.00;;;3.08;;
1523;SDS011;755;53.658;10.118;2022-08-21T02:00:34;7.93;;;3.13;;
1523;SDS011;755;53.658;10.118;2022-08-21T02:10:37;6.50;;;3.08;;
1523;SDS011;755;53.658;10.118;2022-08-21T02:20:44;6.78;;;2.92;;
1523;SDS011;755;53.658;10.118;2022-08-21T02:30:50;6.20;;;3.28;;
1523;SDS011;755;53.658;10.118;2022-08-21T02:40:52;12.73;;;3.75;;
1523;SDS011;755;53.658;10.118;2022-08-21T02:50:58;7.70;;;3.40;;
1523;SDS011;755;53.658;10.118;2022-08-21T03:01:01;7.53;;;3.45;;
1523;SDS011;755;53.658;10.118;2022-08-21T03:11:07;10.93;;;4.05;;
1523;SDS011;755;53.658;10.118;2022-08-21T03:21:09;8.60;;;3.75;;
1523;SDS011;755;53.658;10.118;2022-08-21T03:31:15;9.50;;;2.90;;
1523;SDS011;755;53.658;10.118;2022-08-21T03:41:18;6.93;;;3.33;;
1523;SDS011;755;53.658;10.118;2022-08-21T03:51:22;6.80;;;3.60;;
1523;SDS011;755;53.658;10.118;2022-08-21T04:01:24;5.80;;;3.33;;
1523;SDS011;755;53.658;10.118;2022-08-21T04:11:28;5.82;;;3.40;;
1523;SDS011;755;53.658;10.118;2022-08-21T04:21:30;9.63;;;4.43;;
1523;SDS011;755;53.658;10.118;2022-08-21T04:31:35;6.88;;;3.67;;
1523;SDS011;755;53.658;10.118;2022-08-21T04:41:38;4.85;;;3.13;;
1523;SDS011;755;53.658;10.118;2022-08-21T04:51:42;13.48;;;3.95;;
1523;SDS011;755;53.658;10.118;2022-08-21T05:01:45;7.55;;;3.30;;
1523;SDS011;755;53.658;10.118;2022-08-21T05:11:48;6.03;;;3.78;;
1523;SDS011;755;53.658;10.118;2022-08-21T05:21:51;8.73;;;3.60;;
1523;SDS011;755;53.658;10.118;2022-08-21T05:31:55;6.45;;;3.50;;
1523;SDS011;755;53.658;10.118;2022-08-21T05:41:57;6.00;;;3.42;;
1523;SDS011;755;53.658;10.118;2022-08-21T05:52:00;6.35;;;3.20;;
1523;SDS011;755;53.658;10.118;2022-08-21T06:02:04;7.35;;;3.08;;
1523;SDS011;755;53.658;10.118;2022-08-21T06:12:09;8.90;;;2.53;;
1523;SDS011;755;53.658;10.118;2022-08-21T06:22:13;11.30;;;2.75;;
1523;SDS011;755;53.658;10.118;2022-08-21T06:32:16;11.65;;;2.55;;
1523;SDS011;755;53.658;10.118;2022-08-21T06:42:18;5.90;;;2.15;;
1523;SDS011;755;53.658;10.118;2022-08-21T06:52:22;8.82;;;2.17;;
1523;SDS011;755;53.658;10.118;2022-08-21T07:02:24;2.95;;;1.63;;
1523;SDS011;755;53.658;10.118;2022-08-21T07:12:27;8.52;;;2.03;;
1523;SDS011;755;53.658;10.118;2022-08-21T07:22:30;6.15;;;1.90;;
1523;SDS011;755;53.658;10.118;2022-08-21T07:32:33;3.58;;;1.88;;
1523;SDS011;755;53.658;10.118;2022-08-21T07:42:39;5.18;;;1.52;;
1523;SDS011;755;53.658;10.118;2022-08-21T07:52:43;6.18;;;2.30;;
1523;SDS011;755;53.658;10.118;2022-08-21T08:02:46;5.40;;;1.63;;
1523;SDS011;755;53.658;10.118;2022-08-21T08:12:52;7.75;;;1.88;;
1523;SDS011;755;53.658;10.118;2022-08-21T08:22:55;5.15;;;1.40;;
1523;SDS011;755;53.658;10.118;2022-08-21T08:32:59;6.15;;;1.63;;
1523;SDS011;755;53.658;10.118;2022-08-21T08:43:01;6.75;;;2.33;;
1523;SDS011;755;53.658;10.118;2022-08-21T08:53:06;4.97;;;1.17;;
1523;SDS011;755;53.658;10.118;2022-08-21T09:03:12;5.38;;;1.95;;
1523;SDS011;755;53.658;10.118;2022-08-21T09:13:17;11.60;;;1.83;;
1523;SDS011;755;53.658;10.118;2022-08-21T09:23:25;4.57;;;1.50;;
1523;SDS011;755;53.658;10.118;2022-08-21T09:33:36;15.27;;;2.33;;
1523;SDS011;755;53.658;10.118;2022-08-21T09:43:38;7.65;;;2.05;;
1523;SDS011;755;53.658;10.118;2022-08-21T09:53:43;7.88;;;1.65;;
1523;SDS011;755;53.658;10.118;2022-08-21T10:03:49;5.65;;;1.35;;
1523;SDS011;755;53.658;10.118;2022-08-21T10:14:07;12.13;;;1.75;;
1523;SDS011;755;53.658;10.118;2022-08-21T10:24:19;6.13;;;1.77;;
1523;SDS011;755;53.658;10.118;2022-08-21T10:34:31;11.57;;;1.90;;
1523;SDS011;755;53.658;10.118;2022-08-21T10:44:44;6.07;;;1.63;;
1523;SDS011;755;53.658;10.118;2022-08-21T10:54:57;6.30;;;1.50;;
1523;SDS011;755;53.658;10.118;2022-08-21T11:05:06;8.25;;;1.67;;
1523;SDS011;755;53.658;10.118;2022-08-21T11:15:18;10.43;;;1.90;;
1523;SDS011;755;53.658;10.118;2022-08-21T11:25:34;7.80;;;1.40;;
1523;SDS011;755;53.658;10.118;2022-08-21T11:35:41;7.80;;;1.70;;
1523;SDS011;755;53.658;10.118;2022-08-21T11:45:49;6.07;;;1.50;;
1523;SDS011;755;53.658;10.118;2022-08-21T11:55:55;5.18;;;1.42;;
1523;SDS011;755;53.658;10.118;2022-08-21T12:06:02;7.20;;;1.60;;
1523;SDS011;755;53.658;10.118;2022-08-21T12:16:09;8.65;;;1.50;;
1523;SDS011;755;53.658;10.118;2022-08-21T12:26:17;4.28;;;1.33;;
1523;SDS011;755;53.658;10.118;2022-08-21T12:36:39;4.88;;;1.30;;
1523;SDS011;755;53.658;10.118;2022-08-21T12:46:46;5.90;;;1.55;;
1523;SDS011;755;53.658;10.118;2022-08-21T12:57:00;3.22;;;1.15;;
1523;SDS011;755;53.658;10.118;2022-08-21T13:07:05;2.88;;;1.05;;
1523;SDS011;755;53.658;10.118;2022-08-21T13:17:12;2.42;;;1.25;;
1523;SDS011;755;53.658;10.118;2022-08-21T13:27:23;6.43;;;1.33;;
1523;SDS011;755;53.658;10.118;2022-08-21T13:37:28;5.45;;;1.30;;
1523;SDS011;755;53.658;10.118;2022-08-21T13:47:30;2.45;;;1.08;;
1523;SDS011;755;53.658;10.118;2022-08-21T13:57:33;2.25;;;1.02;;
1523;SDS011;755;53.658;10.118;2022-08-21T14:07:38;11.13;;;1.75;;
1523;SDS011;755;53.658;10.118;2022-08-21T14:17:44;2.10;;;0.90;;
1523;SDS011;755;53.658;10.118;2022-08-21T14:27:48;7.28;;;0.90;;
1523;SDS011;755;53.658;10.118;2022-08-21T14:37:54;4.57;;;0.97;;
1523;SDS011;755;53.658;10.118;2022-08-21T14:47:57;3.15;;;0.77;;
1523;SDS011;755;53.658;10.118;2022-08-21T14:58:01;6.00;;;1.30;;
1523;SDS011;755;53.658;10.118;2022-08-21T15:08:03;1.73;;;0.60;;
1523;SDS011;755;53.658;10.118;2022-08-21T15:18:06;5.43;;;1.10;;
1523;SDS011;755;53.658;10.118;2022-08-21T15:28:09;6.97;;;1.13;;
1523;SDS011;755;53.658;10.118;2022-08-21T15:38:14;7.68;;;1.17;;
1523;SDS011;755;53.658;10.118;2022-08-21T15:48:16;5.38;;;1.23;;
1523;SDS011;755;53.658;10.118;2022-08-21T15:58:19;2.65;;;1.00;;
1523;SDS011;755;53.658;10.118;2022-08-21T16:08:29;4.70;;;1.30;;
1523;SDS011;755;53.658;10.118;2022-08-21T16:18:33;4.13;;;0.98;;
1523;SDS011;755;53.658;10.118;2022-08-21T16:38:46;6.13;;;1.20;;
1523;SDS011;755;53.658;10.118;2022-08-21T16:48:49;3.45;;;1.10;;
1523;SDS011;755;53.658;10.118;2022-08-21T16:58:53;3.33;;;1.15;;
1523;SDS011;755;53.658;10.118;2022-08-21T17:09:00;3.72;;;1.35;;
1523;SDS011;755;53.658;10.118;2022-08-21T17:19:06;6.82;;;2.15;;
1523;SDS011;755;53.658;10.118;2022-08-21T17:29:09;9.73;;;2.07;;
1523;SDS011;755;53.658;10.118;2022-08-21T17:39:17;6.03;;;1.10;;
1523;SDS011;755;53.658;10.118;2022-08-21T17:49:20;7.25;;;1.52;;
1523;SDS011;755;53.658;10.118;2022-08-21T17:59:26;10.05;;;1.40;;
1523;SDS011;755;53.658;10.118;2022-08-21T18:09:28;7.35;;;1.52;;
1523;SDS011;755;53.658;10.118;2022-08-21T18:19:32;10.90;;;1.70;;
1523;SDS011;755;53.658;10.118;2022-08-21T18:29:34;13.10;;;1.80;;
1523;SDS011;755;53.658;10.118;2022-08-21T18:39:38;14.93;;;2.33;;
1523;SDS011;755;53.658;10.118;2022-08-21T18:49:40;8.90;;;1.75;;
1523;SDS011;755;53.658;10.118;2022-08-21T18:59:43;9.20;;;1.73;;
1523;SDS011;755;53.658;10.118;2022-08-21T19:09:46;9.68;;;2.15;;
1523;SDS011;755;53.658;10.118;2022-08-21T19:19:50;6.88;;;1.40;;
1523;SDS011;755;53.658;10.118;2022-08-21T19:29:52;10.27;;;1.98;;
1523;SDS011;755;53.658;10.118;2022-08-21T19:39:55;8.30;;;2.00;;
1523;SDS011;755;53.658;10.118;2022-08-21T19:49:58;8.63;;;1.95;;
1523;SDS011;755;53.658;10.118;2022-08-21T20:00:04;13.88;;;2.05;;
1523;SDS011;755;53.658;10.118;2022-08-21T20:10:08;10.63;;;2.47;;
1523;SDS011;755;53.658;10.118;2022-08-21T20:20:12;9.07;;;2.05;;
1523;SDS011;755;53.658;10.118;2022-08-21T20:30:14;11.50;;;2.15;;
1523;SDS011;755;53.658;10.118;2022-08-21T20:40:17;4.70;;;1.90;;
1523;SDS011;755;53.658;10.118;2022-08-21T20:50:20;8.82;;;1.77;;
1523;SDS011;755;53.658;10.118;2022-08-21T21:00:28;6.72;;;2.05;;
1523;SDS011;755;53.658;10.118;2022-08-21T21:10:36;6.95;;;1.98;;
1523;SDS011;755;53.658;10.118;2022-08-21T21:20:43;8.27;;;2.43;;
1523;SDS011;755;53.658;10.118;2022-08-21T21:30:55;9.13;;;2.15;;
1523;SDS011;755;53.658;10.118;2022-08-21T21:41:04;10.00;;;2.25;;
1523;SDS011;755;53.658;10.118;2022-08-21T21:51:14;11.00;;;2.08;;
1523;SDS011;755;53.658;10.118;2022-08-21T22:01:24;9.25;;;2.47;;
1523;SDS011;755;53.658;10.118;2022-08-21T22:21:57;8.50;;;1.95;;
1523;SDS011;755;53.658;10.118;2022-08-21T22:32:03;8.13;;;2.22;;
1523;SDS011;755;53.658;10.118;2022-08-21T22:42:09;7.80;;;1.95;;
1523;SDS011;755;53.658;10.118;2022-08-21T22:52:18;6.40;;;2.53;;
1523;SDS011;755;53.658;10.118;2022-08-21T23:02:28;9.40;;;2.20;;
1523;SDS011;755;53.658;10.118;2022-08-21T23:12:36;4.97;;;2.10;;
1523;SDS011;755;53.658;10.118;2022-08-21T23:22:43;10.48;;;2.10;;
1523;SDS011;755;53.658;10.118;2022-08-21T23:33:08;10.65;;;2.38;;
1523;SDS011;755;53.658;10.118;2022-08-21T23:43:25;3.88;;;1.75;;
1523;SDS011;755;53.658;10.118;2022-08-21T23:53:43;12.50;;;2.70;;
